Time;durP1;ratioP1;P1;durP2;ratioP2;P2;SDS_P1;SDS_P2;PMS_P1;PMS_P2;Temp;Humidity;BMP_temperature;BMP_pressure;BME280_temperature;BME280_humidity;BME280_pressure;Samples;Min_cycle;Max_cycle;Signal;HPM_P1;HPM_P2
2024/01/27 00:01:47;;;;;;;19.05;3.13;;;4.60;99.90;;;;;;5039946;28;20040;-79
2024/01/27 00:04:13;;;;;;;16.25;2.85;;;4.70;99.90;;;;;;5056005;28;20106;-79
2024/01/27 00:06:39;;;;;;;22.02;3.47;;;4.60;99.90;;;;;;5051371;28;20116;-79
2024/01/27 00:09:06;;;;;;;16.40;3.17;;;4.60;99.90;;;;;;5053052;28;20049;-79
2024/01/27 00:11:32;;;;;;;16.48;3.25;;;4.60;99.90;;;;;;5055083;28;20076;-79
2024/01/27 00:13:59;;;;;;;16.95;2.92;;;4.70;99.90;;;;;;5055806;28;20083;-79
2024/01/27 00:16:24;;;;;;;15.70;2.92;;;4.70;99.90;;;;;;5054135;28;20086;-79
2024/01/27 00:18:50;;;;;;;18.52;2.83;;;4.70;99.90;;;;;;5056133;28;20032;-79
2024/01/27 00:21:16;;;;;;;14.15;3.03;;;4.70;99.90;;;;;;5056353;28;20029;-79
2024/01/27 00:23:41;;;;;;;16.45;2.63;;;4.60;99.90;;;;;;5053978;28;20070;-79
2024/01/27 00:26:07;;;;;;;15.65;2.78;;;4.60;99.90;;;;;;5040872;28;20036;-79
2024/01/27 00:28:33;;;;;;;15.55;2.70;;;4.60;99.90;;;;;;5055664;28;20127;-79
2024/01/27 00:30:59;;;;;;;24.90;3.83;;;4.60;99.90;;;;;;5055873;28;20048;-79
2024/01/27 00:33:24;;;;;;;17.90;3.10;;;4.60;99.90;;;;;;5054637;28;20032;-79
2024/01/27 00:35:50;;;;;;;21.83;2.88;;;4.70;99.90;;;;;;5038474;28;20119;-79
2024/01/27 00:38:15;;;;;;;14.07;2.80;;;4.60;99.90;;;;;;5038519;28;20089;-79
2024/01/27 00:40:41;;;;;;;14.57;2.65;;;4.60;99.90;;;;;;5056106;28;20044;-79
2024/01/27 00:43:07;;;;;;;10.85;2.97;;;4.50;99.90;;;;;;5039139;28;20036;-79
2024/01/27 00:45:32;;;;;;;17.35;3.33;;;4.60;99.90;;;;;;5052777;28;20067;-79
2024/01/27 00:47:58;;;;;;;14.95;2.67;;;4.60;99.90;;;;;;5055568;28;20045;-79
2024/01/27 00:50:24;;;;;;;16.25;3.17;;;4.60;99.90;;;;;;5038428;28;20442;-79
2024/01/27 00:52:49;;;;;;;13.48;3.03;;;4.60;99.90;;;;;;5055592;28;20040;-79
2024/01/27 00:55:15;;;;;;;17.83;2.55;;;4.60;99.90;;;;;;5038227;28;20036;-79
2024/01/27 00:57:41;;;;;;;17.50;2.58;;;4.70;99.90;;;;;;5037272;28;20028;-79
2024/01/27 01:00:11;;;;;;;15.15;2.85;;;4.70;99.90;;;;;;5038572;28;20094;-79
2024/01/27 01:02:37;;;;;;;15.68;2.28;;;4.70;99.90;;;;;;5037936;28;20044;-79
2024/01/27 01:05:03;;;;;;;13.70;2.00;;;4.70;99.90;;;;;;5037809;28;20492;-79
2024/01/27 01:07:30;;;;;;;15.95;2.88;;;4.60;99.90;;;;;;5054186;28;20040;-79
2024/01/27 01:09:56;;;;;;;13.45;2.65;;;4.50;99.90;;;;;;5054367;28;20044;-79
2024/01/27 01:12:22;;;;;;;19.10;2.42;;;4.50;99.90;;;;;;5038606;28;20045;-79
2024/01/27 01:14:47;;;;;;;16.83;2.58;;;4.50;99.90;;;;;;5054447;28;20393;-79
2024/01/27 01:17:13;;;;;;;12.23;3.35;;;4.50;99.90;;;;;;5037835;28;20032;-79
2024/01/27 01:19:39;;;;;;;14.85;2.60;;;4.60;99.90;;;;;;5038421;28;20040;-79
2024/01/27 01:22:05;;;;;;;14.50;1.98;;;4.60;99.90;;;;;;5037630;28;20052;-79
2024/01/27 01:24:31;;;;;;;18.45;3.05;;;4.70;99.90;;;;;;5054923;28;20393;-79
2024/01/27 01:26:57;;;;;;;11.40;2.65;;;4.80;99.90;;;;;;5036698;28;20082;-79
2024/01/27 01:29:22;;;;;;;14.20;2.60;;;4.80;99.90;;;;;;5054753;28;20130;-79
2024/01/27 01:31:48;;;;;;;13.77;2.58;;;4.60;99.90;;;;;;5037940;28;20522;-79
2024/01/27 01:34:14;;;;;;;13.55;2.83;;;4.60;99.90;;;;;;5038002;28;20124;-79
2024/01/27 01:36:40;;;;;;;12.88;2.28;;;4.50;99.90;;;;;;5053315;28;20037;-79
2024/01/27 01:39:07;;;;;;;16.48;3.17;;;4.40;99.90;;;;;;5053900;28;20040;-79
2024/01/27 01:41:32;;;;;;;15.02;2.22;;;4.40;99.90;;;;;;5037285;28;20029;-79
2024/01/27 01:43:58;;;;;;;12.38;2.28;;;4.30;99.90;;;;;;5056357;28;20039;-79
2024/01/27 01:46:24;;;;;;;14.20;2.60;;;4.40;99.90;;;;;;5029005;28;20032;-79
2024/01/27 01:48:50;;;;;;;13.93;2.20;;;4.40;99.90;;;;;;5046303;28;20041;-79
2024/01/27 01:51:16;;;;;;;18.45;2.67;;;4.50;99.90;;;;;;5038199;28;20135;-79
2024/01/27 01:53:43;;;;;;;15.30;2.60;;;4.60;99.90;;;;;;5036309;28;20037;-79
2024/01/27 01:56:09;;;;;;;21.27;3.05;;;4.70;99.90;;;;;;5036600;28;20028;-79
2024/01/27 01:58:35;;;;;;;15.60;3.05;;;4.50;99.90;;;;;;5038014;28;20048;-79
2024/01/27 02:01:01;;;;;;;15.60;2.83;;;4.40;99.90;;;;;;5037303;28;20390;-79
2024/01/27 02:03:27;;;;;;;18.58;3.22;;;4.30;99.90;;;;;;5038041;28;20048;-79
2024/01/27 02:05:53;;;;;;;15.93;2.20;;;4.20;99.90;;;;;;5036684;28;20040;-79
2024/01/27 02:08:18;;;;;;;13.90;2.10;;;4.20;99.90;;;;;;5054793;28;20157;-79
2024/01/27 02:10:45;;;;;;;17.45;2.53;;;4.30;99.90;;;;;;5037264;28;20047;-79
2024/01/27 02:13:18;;;;;;;11.65;2.40;;;4.30;99.90;;;;;;5036085;28;20072;-79
2024/01/27 02:15:44;;;;;;;16.08;2.20;;;4.40;99.90;;;;;;5054076;28;20040;-79
2024/01/27 02:18:10;;;;;;;7.47;1.70;;;4.40;99.90;;;;;;5054419;28;20393;-79
2024/01/27 02:20:37;;;;;;;11.30;2.28;;;4.40;99.90;;;;;;5037612;28;20507;-79
2024/01/27 02:23:04;;;;;;;14.45;2.72;;;4.40;99.90;;;;;;5054623;28;20060;-79
2024/01/27 02:25:30;;;;;;;19.40;2.70;;;4.50;99.90;;;;;;5052993;28;20083;-79
2024/01/27 02:27:56;;;;;;;16.45;1.98;;;4.40;99.90;;;;;;5018468;28;20075;-79
2024/01/27 02:30:22;;;;;;;12.57;2.33;;;4.40;99.90;;;;;;5051284;28;20467;-79
2024/01/27 02:32:47;;;;;;;10.50;2.30;;;4.40;99.90;;;;;;5054390;28;20033;-79
2024/01/27 02:35:14;;;;;;;12.57;2.22;;;4.30;99.90;;;;;;5067368;28;20150;-79
2024/01/27 02:37:40;;;;;;;13.32;2.40;;;4.20;99.90;;;;;;5013342;28;20095;-79
2024/01/27 02:40:07;;;;;;;13.57;2.10;;;4.20;99.90;;;;;;5055638;28;20041;-79
2024/01/27 02:42:33;;;;;;;10.57;2.63;;;4.20;99.90;;;;;;5020356;28;20060;-79
2024/01/27 02:44:59;;;;;;;14.27;2.97;;;4.20;99.90;;;;;;5034711;28;20040;-79
2024/01/27 02:47:24;;;;;;;15.45;2.58;;;4.30;99.90;;;;;;5028894;28;20136;-79
2024/01/27 02:49:50;;;;;;;11.88;2.13;;;4.30;99.90;;;;;;5040324;28;20044;-79
2024/01/27 02:52:15;;;;;;;18.48;2.58;;;4.30;99.90;;;;;;5022023;28;20036;-79
2024/01/27 02:54:41;;;;;;;9.52;1.88;;;4.30;99.90;;;;;;5032393;28;20396;-79
2024/01/27 02:57:07;;;;;;;13.07;2.30;;;4.40;99.90;;;;;;5052203;28;20142;-79
2024/01/27 02:59:33;;;;;;;13.02;3.17;;;4.30;99.90;;;;;;5034452;28;21594;-79
2024/01/27 03:01:58;;;;;;;13.13;1.73;;;4.20;99.90;;;;;;5046433;28;20040;-79
2024/01/27 03:04:24;;;;;;;9.23;2.35;;;4.20;99.90;;;;;;5051491;28;20058;-79
2024/01/27 03:06:49;;;;;;;11.60;2.00;;;4.20;99.90;;;;;;5050525;28;20056;-79
2024/01/27 03:09:15;;;;;;;16.02;2.60;;;4.10;99.90;;;;;;5017410;28;20032;-79
2024/01/27 03:11:41;;;;;;;12.90;1.80;;;4.20;99.90;;;;;;5056142;28;20111;-79
2024/01/27 03:14:06;;;;;;;9.55;1.80;;;4.30;99.90;;;;;;5036116;28;20161;-79
2024/01/27 03:16:32;;;;;;;13.35;2.65;;;4.30;99.90;;;;;;5039133;28;20032;-79
2024/01/27 03:18:58;;;;;;;12.50;2.13;;;4.20;99.90;;;;;;5018502;28;20040;-79
2024/01/27 03:21:23;;;;;;;11.50;2.20;;;4.20;99.90;;;;;;5034332;28;20106;-79
2024/01/27 03:23:49;;;;;;;13.93;2.47;;;4.20;99.90;;;;;;5027015;28;20033;-80
2024/01/27 03:26:15;;;;;;;11.45;2.22;;;4.10;99.90;;;;;;5037578;28;20442;-79
2024/01/27 03:28:41;;;;;;;14.77;2.72;;;4.10;99.90;;;;;;5021902;28;20055;-79
2024/01/27 03:31:06;;;;;;;15.18;2.00;;;4.00;99.90;;;;;;5028330;28;20471;-79
2024/01/27 03:33:32;;;;;;;16.63;2.97;;;4.00;99.90;;;;;;5027533;28;20045;-79
2024/01/27 03:35:58;;;;;;;14.15;2.17;;;4.00;99.90;;;;;;5038552;28;20511;-79
2024/01/27 03:38:23;;;;;;;10.07;2.40;;;4.00;99.90;;;;;;5034721;28;20033;-79
2024/01/27 03:40:49;;;;;;;16.77;2.17;;;3.90;99.90;;;;;;5018611;28;20048;-79
2024/01/27 03:43:14;;;;;;;9.18;2.40;;;3.90;99.90;;;;;;5019385;28;20052;-79
2024/01/27 03:45:40;;;;;;;11.32;1.95;;;3.90;99.90;;;;;;5035744;28;20055;-79
2024/01/27 03:48:06;;;;;;;13.77;1.90;;;3.90;99.90;;;;;;5038127;28;20032;-80
2024/01/27 03:50:32;;;;;;;10.55;2.10;;;3.90;99.90;;;;;;5053836;28;20389;-79
2024/01/27 03:52:57;;;;;;;12.15;3.53;;;3.90;99.90;;;;;;5056411;28;20044;-80
2024/01/27 03:55:23;;;;;;;16.52;3.13;;;3.80;99.90;;;;;;5041497;28;20033;-80
2024/01/27 03:57:49;;;;;;;10.48;2.15;;;3.80;99.90;;;;;;5031459;28;20032;-79
2024/01/27 04:00:14;;;;;;;13.18;1.88;;;3.80;99.90;;;;;;5013830;28;20159;-80
2024/01/27 04:02:40;;;;;;;13.20;2.60;;;3.80;99.90;;;;;;5010559;28;20045;-79
2024/01/27 04:05:06;;;;;;;17.20;2.08;;;3.80;99.90;;;;;;5014933;28;21578;-80
2024/01/27 04:07:32;;;;;;;10.10;2.08;;;3.80;99.90;;;;;;5010857;28;21547;-79
2024/01/27 04:09:57;;;;;;;11.18;2.70;;;3.80;99.90;;;;;;4999967;28;20409;-79
2024/01/27 04:12:23;;;;;;;11.02;2.25;;;3.80;99.90;;;;;;5011334;28;20046;-79
2024/01/27 04:14:49;;;;;;;11.48;2.47;;;3.70;99.90;;;;;;5011912;28;20068;-80
2024/01/27 04:17:14;;;;;;;11.77;2.08;;;3.70;99.90;;;;;;5014884;28;20045;-79
2024/01/27 04:19:40;;;;;;;10.93;2.00;;;3.70;99.90;;;;;;4995398;28;20045;-80
2024/01/27 04:22:05;;;;;;;12.82;2.45;;;3.70;99.90;;;;;;4993462;28;20048;-80
2024/01/27 04:24:31;;;;;;;13.30;2.40;;;3.70;99.90;;;;;;5011979;28;21530;-79
2024/01/27 04:26:59;;;;;;;14.20;1.98;;;3.80;99.90;;;;;;5018293;28;20382;-79
2024/01/27 04:29:24;;;;;;;13.93;2.45;;;3.90;99.90;;;;;;5010482;28;20135;-79
2024/01/27 04:31:50;;;;;;;15.63;2.70;;;3.90;99.90;;;;;;5016344;28;20037;-80
2024/01/27 04:34:16;;;;;;;12.13;2.10;;;3.80;99.90;;;;;;5010991;28;20042;-80
2024/01/27 04:36:41;;;;;;;16.42;2.33;;;3.80;99.90;;;;;;5030780;28;20061;-80
2024/01/27 04:39:07;;;;;;;17.92;2.35;;;3.80;99.90;;;;;;5010146;28;20059;-79
2024/01/27 04:41:33;;;;;;;13.25;2.00;;;3.80;99.90;;;;;;5010947;28;20037;-80
2024/01/27 04:43:58;;;;;;;13.00;2.20;;;3.90;99.90;;;;;;5010927;28;20122;-79
2024/01/27 04:46:24;;;;;;;15.15;2.10;;;3.80;99.90;;;;;;5010770;28;20127;-79
2024/01/27 04:48:50;;;;;;;14.45;2.22;;;3.80;99.90;;;;;;4994715;28;20061;-79
2024/01/27 04:51:15;;;;;;;11.48;2.20;;;3.70;99.90;;;;;;5010584;28;20049;-80
2024/01/27 04:53:41;;;;;;;9.80;2.05;;;3.70;99.90;;;;;;5010844;28;20065;-79
2024/01/27 04:56:12;;;;;;;14.55;2.50;;;3.70;99.90;;;;;;4992744;28;20044;-79
2024/01/27 04:58:38;;;;;;;11.38;1.98;;;3.70;99.90;;;;;;4995680;28;20057;-79
2024/01/27 05:01:03;;;;;;;7.85;2.13;;;3.80;99.90;;;;;;5010913;28;20048;-80
2024/01/27 05:03:29;;;;;;;11.23;1.85;;;4.00;99.90;;;;;;4996017;28;20495;-79
2024/01/27 05:05:55;;;;;;;11.40;2.28;;;4.00;99.90;;;;;;4984978;28;20098;-79
2024/01/27 05:08:20;;;;;;;9.80;2.00;;;4.00;99.90;;;;;;5013801;28;20037;-80
2024/01/27 05:10:46;;;;;;;13.85;2.70;;;4.00;99.90;;;;;;5006237;28;20417;-80
2024/01/27 05:13:11;;;;;;;11.55;2.85;;;3.80;99.90;;;;;;4990055;28;20045;-79
2024/01/27 05:15:37;;;;;;;14.52;3.45;;;3.70;99.90;;;;;;4984131;28;20041;-79
2024/01/27 05:18:03;;;;;;;15.15;2.22;;;3.60;99.90;;;;;;5008988;28;20065;-79
2024/01/27 05:20:28;;;;;;;8.60;1.73;;;3.70;99.90;;;;;;5013627;28;20041;-79
2024/01/27 05:22:54;;;;;;;14.85;3.60;;;3.70;99.90;;;;;;5011166;28;20468;-80
2024/01/27 05:25:20;;;;;;;13.52;2.70;;;3.70;99.90;;;;;;4995810;28;20042;-79
2024/01/27 05:27:45;;;;;;;12.52;2.75;;;3.70;99.90;;;;;;4994630;28;20175;-79
2024/01/27 05:30:11;;;;;;;11.10;2.33;;;3.60;99.90;;;;;;5013850;28;20564;-80
2024/01/27 05:32:37;;;;;;;16.05;2.13;;;3.60;99.90;;;;;;5016854;28;20068;-79
2024/01/27 05:35:04;;;;;;;15.77;2.63;;;3.60;99.90;;;;;;4993805;28;20116;-79
2024/01/27 05:37:30;;;;;;;15.32;2.90;;;3.70;99.90;;;;;;4997763;28;20071;-80
2024/01/27 05:39:56;;;;;;;12.93;2.63;;;3.80;99.90;;;;;;5027232;28;20034;-79
2024/01/27 05:42:21;;;;;;;18.05;2.63;;;3.70;99.90;;;;;;5012180;28;20052;-79
2024/01/27 05:44:47;;;;;;;11.88;2.35;;;3.80;99.90;;;;;;5010042;28;20427;-79
2024/01/27 05:47:13;;;;;;;11.68;2.25;;;3.90;99.90;;;;;;4993660;28;20050;-80
2024/01/27 05:49:39;;;;;;;9.63;2.00;;;3.90;99.90;;;;;;4997762;28;20046;-79
2024/01/27 05:52:05;;;;;;;11.93;2.40;;;3.90;99.90;;;;;;5012295;28;20136;-79
2024/01/27 05:54:30;;;;;;;16.45;2.72;;;3.80;99.90;;;;;;5020930;28;20034;-79
2024/01/27 05:56:56;;;;;;;12.35;1.83;;;3.70;99.90;;;;;;4993255;28;20048;-79
2024/01/27 05:59:21;;;;;;;10.63;2.30;;;3.80;99.90;;;;;;5009796;28;20062;-79
2024/01/27 06:01:47;;;;;;;11.88;1.73;;;3.80;99.90;;;;;;5016045;28;20042;-79
2024/01/27 06:04:13;;;;;;;12.68;2.00;;;4.00;99.90;;;;;;5009896;28;20041;-79
2024/01/27 06:06:41;;;;;;;14.55;2.65;;;4.00;99.90;;;;;;5009673;28;20038;-80
2024/01/27 06:09:13;;;;;;;13.20;2.38;;;3.90;99.90;;;;;;5019366;28;20037;-79
2024/01/27 06:11:39;;;;;;;15.30;4.40;;;3.90;99.90;;;;;;5016674;28;20030;-79
2024/01/27 06:14:06;;;;;;;20.33;2.30;;;3.80;99.90;;;;;;4996539;28;20045;-80
2024/01/27 06:16:32;;;;;;;10.88;1.98;;;3.80;99.90;;;;;;5017135;28;20045;-80
2024/01/27 06:18:58;;;;;;;12.57;1.92;;;3.80;99.90;;;;;;4990642;28;20492;-79
2024/01/27 06:21:23;;;;;;;10.32;2.28;;;3.80;99.90;;;;;;5012162;28;20069;-80
2024/01/27 06:23:49;;;;;;;8.30;1.75;;;3.70;99.90;;;;;;5022431;28;20061;-79
2024/01/27 06:26:15;;;;;;;16.33;2.22;;;3.60;99.90;;;;;;5001662;28;20068;-80
2024/01/27 06:28:40;;;;;;;11.85;2.05;;;3.70;99.90;;;;;;4992092;28;20406;-80
2024/01/27 06:31:07;;;;;;;10.05;2.03;;;3.70;99.90;;;;;;4996828;28;20697;-79
2024/01/27 06:33:34;;;;;;;11.05;2.05;;;3.70;99.90;;;;;;5004115;28;20777;-79
2024/01/27 06:36:00;;;;;;;13.10;2.28;;;3.60;99.90;;;;;;5014504;28;20061;-79
2024/01/27 06:38:31;;;;;;;14.93;2.70;;;3.60;99.90;;;;;;5010708;28;20197;-80
2024/01/27 06:40:57;;;;;;;15.27;2.65;;;3.70;99.90;;;;;;5022462;28;20041;-79
2024/01/27 06:43:23;;;;;;;11.88;2.22;;;3.60;99.90;;;;;;5018838;28;20041;-79
2024/01/27 06:45:49;;;;;;;14.05;2.45;;;3.60;99.90;;;;;;5010762;28;20096;-79
2024/01/27 06:48:15;;;;;;;14.40;2.85;;;3.50;99.90;;;;;;5030953;28;20049;-79
2024/01/27 06:50:40;;;;;;;15.85;3.88;;;3.50;99.90;;;;;;5026918;28;20041;-79
2024/01/27 06:53:06;;;;;;;13.00;2.30;;;3.50;99.90;;;;;;5012109;28;20048;-80
2024/01/27 06:55:31;;;;;;;12.88;2.78;;;3.50;99.90;;;;;;5020872;28;21409;-79
2024/01/27 06:57:57;;;;;;;13.43;2.97;;;3.40;99.90;;;;;;5006022;28;20040;-79
2024/01/27 07:00:23;;;;;;;10.10;2.03;;;3.50;99.90;;;;;;5015186;28;20053;-79
2024/01/27 07:02:48;;;;;;;16.98;3.25;;;3.50;99.90;;;;;;5032458;28;20110;-79
2024/01/27 07:05:14;;;;;;;12.05;3.65;;;3.60;99.90;;;;;;5012387;28;20460;-79
2024/01/27 07:07:41;;;;;;;12.15;2.30;;;3.50;99.90;;;;;;5015773;28;20068;-79
2024/01/27 07:10:10;;;;;;;10.18;3.67;;;3.50;99.90;;;;;;5033046;28;20401;-79
2024/01/27 07:12:36;;;;;;;12.98;2.15;;;3.50;99.90;;;;;;5018051;28;20045;-79
2024/01/27 07:15:02;;;;;;;10.52;2.22;;;3.40;99.90;;;;;;5016948;28;20557;-79
2024/01/27 07:17:28;;;;;;;12.60;2.25;;;3.50;99.90;;;;;;5017045;28;20038;-80
2024/01/27 07:19:53;;;;;;;12.88;3.03;;;3.50;99.90;;;;;;5009873;28;20064;-79
2024/01/27 07:22:19;;;;;;;10.95;2.13;;;3.50;99.90;;;;;;5007157;28;20072;-80
2024/01/27 07:24:45;;;;;;;15.15;2.78;;;3.50;99.90;;;;;;5010938;28;20095;-79
2024/01/27 07:27:13;;;;;;;14.88;3.15;;;3.50;99.90;;;;;;5027731;28;20045;-79
2024/01/27 07:29:39;;;;;;;15.35;3.85;;;3.50;99.90;;;;;;5033018;28;20394;-79
2024/01/27 07:32:07;;;;;;;12.85;2.97;;;3.50;99.90;;;;;;5009966;28;22016;-79
2024/01/27 07:34:33;;;;;;;12.35;2.88;;;3.40;99.90;;;;;;5016236;28;20398;-79
2024/01/27 07:36:59;;;;;;;14.10;2.63;;;3.40;99.90;;;;;;5015094;28;20116;-79
2024/01/27 07:39:24;;;;;;;12.57;2.28;;;3.30;99.90;;;;;;5025163;28;20034;-79
2024/01/27 07:41:50;;;;;;;12.82;3.50;;;3.50;99.90;;;;;;5024599;28;20056;-79
2024/01/27 07:44:18;;;;;;;13.70;2.67;;;3.50;99.90;;;;;;4999104;28;20041;-79
2024/01/27 07:46:43;;;;;;;14.98;3.42;;;3.40;99.90;;;;;;5007348;28;20097;-79
2024/01/27 07:49:09;;;;;;;16.95;3.58;;;3.30;99.90;;;;;;5031491;28;20129;-79
2024/01/27 07:51:35;;;;;;;10.85;3.00;;;3.40;99.90;;;;;;5016085;28;20037;-79
2024/01/27 07:54:01;;;;;;;16.33;3.17;;;3.50;99.90;;;;;;5016621;28;20516;-80
2024/01/27 07:56:27;;;;;;;17.80;3.50;;;3.40;99.90;;;;;;5016129;28;20033;-80
2024/01/27 07:58:53;;;;;;;18.25;3.90;;;3.30;99.90;;;;;;5025832;28;20399;-79
2024/01/27 08:01:20;;;;;;;12.10;2.97;;;3.20;99.90;;;;;;5053263;28;20052;-80
2024/01/27 08:03:45;;;;;;;15.27;3.55;;;3.30;99.90;;;;;;5048684;28;20051;-80
2024/01/27 08:06:17;;;;;;;15.30;3.78;;;3.40;99.90;;;;;;5053104;28;20472;-80
2024/01/27 08:08:47;;;;;;;21.55;5.22;;;3.40;99.90;;;;;;5051628;28;20047;-80
2024/01/27 08:11:14;;;;;;;18.45;3.75;;;3.50;99.90;;;;;;5068657;28;20032;-80
2024/01/27 08:13:40;;;;;;;15.75;5.35;;;3.50;99.90;;;;;;5052950;28;20128;-80
2024/01/27 08:16:09;;;;;;;13.10;4.05;;;3.50;99.90;;;;;;5069653;28;20111;-80
2024/01/27 08:18:35;;;;;;;17.50;4.22;;;3.50;99.90;;;;;;5051466;28;20423;-80
2024/01/27 08:21:01;;;;;;;13.07;3.88;;;3.50;99.90;;;;;;5048660;28;20079;-80
2024/01/27 08:23:26;;;;;;;13.65;4.63;;;3.50;99.90;;;;;;5048347;28;20037;-80
2024/01/27 08:25:52;;;;;;;13.10;4.00;;;3.50;99.90;;;;;;5043084;28;20472;-80
2024/01/27 08:28:18;;;;;;;13.10;3.88;;;3.60;99.90;;;;;;5051278;28;20072;-80
2024/01/27 08:30:44;;;;;;;9.45;3.60;;;3.60;99.90;;;;;;5051829;28;20123;-80
2024/01/27 08:33:10;;;;;;;16.15;3.97;;;3.70;99.90;;;;;;5051455;28;20516;-80
2024/01/27 08:35:35;;;;;;;15.05;5.28;;;3.80;99.90;;;;;;5051374;28;20446;-80
2024/01/27 08:38:03;;;;;;;16.35;4.80;;;3.70;99.90;;;;;;5051270;28;20080;-80
2024/01/27 08:40:29;;;;;;;13.20;4.30;;;3.80;99.90;;;;;;5045123;28;20044;-79
2024/01/27 08:42:54;;;;;;;16.90;5.30;;;3.80;99.90;;;;;;5029798;28;20041;-80
2024/01/27 08:45:20;;;;;;;12.98;4.97;;;3.90;99.90;;;;;;5035379;28;20037;-80
2024/01/27 08:47:45;;;;;;;14.73;5.05;;;3.90;99.90;;;;;;5048820;28;20035;-80
2024/01/27 08:50:11;;;;;;;12.07;3.97;;;3.90;99.90;;;;;;5047527;28;20948;-81
2024/01/27 08:52:37;;;;;;;12.77;3.80;;;3.90;99.90;;;;;;5035144;28;20063;-79
2024/01/27 08:55:03;;;;;;;18.55;5.43;;;4.10;99.90;;;;;;5052238;28;20075;-80
2024/01/27 08:57:29;;;;;;;16.42;4.78;;;4.10;99.90;;;;;;5035246;28;20065;-80
2024/01/27 08:59:55;;;;;;;15.20;4.63;;;4.10;99.90;;;;;;5042625;28;20084;-80
2024/01/27 09:02:20;;;;;;;8.27;3.42;;;4.20;99.90;;;;;;5031400;28;20478;-80
2024/01/27 09:04:46;;;;;;;15.02;5.13;;;4.20;99.90;;;;;;5033087;28;20041;-80
2024/01/27 09:07:12;;;;;;;17.20;4.75;;;4.30;99.90;;;;;;5047713;28;20120;-80
2024/01/27 09:09:40;;;;;;;12.65;4.47;;;4.40;99.90;;;;;;5029225;28;20079;-80
2024/01/27 09:12:06;;;;;;;15.35;5.20;;;4.40;99.90;;;;;;5015388;28;20410;-80
2024/01/27 09:14:33;;;;;;;11.68;4.75;;;4.40;99.90;;;;;;5035470;28;20037;-80
2024/01/27 09:17:02;;;;;;;15.63;5.63;;;4.40;99.90;;;;;;5052022;28;20044;-80
2024/01/27 09:19:28;;;;;;;15.90;5.20;;;4.40;99.90;;;;;;5034880;28;20032;-80
2024/01/27 09:21:54;;;;;;;12.18;3.88;;;4.50;99.90;;;;;;5031735;28;20043;-80
2024/01/27 09:24:19;;;;;;;12.30;4.40;;;4.50;99.90;;;;;;5050553;28;20029;-80
2024/01/27 09:26:45;;;;;;;18.00;5.40;;;4.60;99.90;;;;;;5047087;28;20041;-80
2024/01/27 09:29:11;;;;;;;12.98;4.60;;;4.50;99.90;;;;;;5031840;28;20045;-80
2024/01/27 09:31:36;;;;;;;15.23;4.05;;;4.60;99.90;;;;;;5047215;28;20040;-80
2024/01/27 09:34:02;;;;;;;12.80;4.38;;;4.60;99.90;;;;;;5032999;28;20041;-80
2024/01/27 09:36:28;;;;;;;16.75;5.07;;;4.70;99.90;;;;;;5020068;28;20030;-80
2024/01/27 09:38:54;;;;;;;11.98;4.95;;;4.70;99.90;;;;;;5033647;28;20044;-80
2024/01/27 09:41:20;;;;;;;13.57;4.85;;;4.70;99.90;;;;;;5050696;28;20040;-80
2024/01/27 09:43:47;;;;;;;15.57;4.78;;;4.90;99.90;;;;;;5022269;28;20095;-80
2024/01/27 09:46:17;;;;;;;11.93;4.38;;;4.90;99.90;;;;;;5021020;28;20047;-80
2024/01/27 09:48:43;;;;;;;15.30;5.07;;;4.90;99.90;;;;;;5045079;28;20041;-80
2024/01/27 09:51:10;;;;;;;13.82;5.07;;;5.00;99.90;;;;;;5050859;28;20037;-80
2024/01/27 09:53:36;;;;;;;12.52;4.47;;;5.20;99.90;;;;;;5037289;28;20095;-80
2024/01/27 09:56:03;;;;;;;19.83;5.28;;;5.30;99.90;;;;;;5025284;28;20494;-80
2024/01/27 09:58:30;;;;;;;17.73;4.78;;;5.30;99.90;;;;;;5020037;28;20059;-79
2024/01/27 10:00:58;;;;;;;19.77;5.88;;;5.40;99.90;;;;;;5046563;28;20106;-80
2024/01/27 10:03:28;;;;;;;13.50;3.83;;;5.40;99.90;;;;;;5056624;28;20051;-80
2024/01/27 10:05:56;;;;;;;14.73;4.88;;;5.50;99.90;;;;;;5046713;28;20037;-80
2024/01/27 10:08:22;;;;;;;17.27;5.47;;;5.60;99.90;;;;;;5055782;28;20036;-80
2024/01/27 10:10:56;;;;;;;14.50;5.10;;;5.80;99.90;;;;;;5038782;28;20524;-81
2024/01/27 10:13:28;;;;;;;17.58;5.05;;;5.70;99.90;;;;;;5028300;28;20393;-80
2024/01/27 10:16:04;;;;;;;19.50;6.15;;;5.90;99.90;;;;;;5047307;28;20447;-80
2024/01/27 10:18:31;;;;;;;14.88;4.78;;;5.90;99.90;;;;;;5042551;28;20032;-80
2024/01/27 10:20:57;;;;;;;17.85;4.93;;;6.00;99.90;;;;;;5055343;28;20048;-80
2024/01/27 10:23:23;;;;;;;14.18;4.68;;;5.90;99.90;;;;;;5051488;28;20039;-81
2024/01/27 10:25:50;;;;;;;11.18;4.65;;;6.10;99.90;;;;;;5055983;28;20032;-80
2024/01/27 10:28:16;;;;;;;22.02;5.60;;;6.20;99.90;;;;;;5039335;28;20127;-80
2024/01/27 10:30:43;;;;;;;18.83;5.40;;;6.20;99.90;;;;;;5047397;28;20075;-80
2024/01/27 10:33:15;;;;;;;18.70;6.38;;;6.20;99.90;;;;;;5036379;28;20469;-80
2024/01/27 10:35:42;;;;;;;12.68;3.65;;;6.40;99.90;;;;;;5041473;28;20120;-80
2024/01/27 10:38:08;;;;;;;19.23;5.97;;;6.50;99.90;;;;;;5032313;28;20040;-80
2024/01/27 10:40:36;;;;;;;15.35;5.00;;;6.80;99.90;;;;;;5046231;28;20385;-80
2024/01/27 10:43:02;;;;;;;17.38;5.43;;;6.60;99.90;;;;;;5038168;28;20047;-80
2024/01/27 10:45:39;;;;;;;13.95;5.05;;;6.80;99.90;;;;;;5055207;28;20044;-80
2024/01/27 10:48:07;;;;;;;10.45;3.30;;;6.90;99.90;;;;;;5055265;28;20105;-81
2024/01/27 10:50:38;;;;;;;14.77;5.10;;;6.90;99.90;;;;;;5057058;28;20131;-80
2024/01/27 10:53:23;;;;;;;14.83;4.90;;;7.00;99.90;;;;;;5051734;28;20033;-80
2024/01/27 10:55:53;;;;;;;16.63;5.07;;;7.10;99.90;;;;;;5051551;28;20453;-80
2024/01/27 10:58:20;;;;;;;17.52;4.88;;;7.00;99.90;;;;;;5055891;28;20044;-81
2024/01/27 11:00:49;;;;;;;14.80;4.82;;;7.10;99.90;;;;;;5034997;28;20115;-81
2024/01/27 11:03:18;;;;;;;13.38;4.10;;;7.10;99.90;;;;;;5042728;28;20091;-80
2024/01/27 11:05:46;;;;;;;5.53;2.17;;;7.20;99.90;;;;;;5050411;28;20048;-81
2024/01/27 11:08:13;;;;;;;15.95;4.88;;;7.20;99.90;;;;;;5041730;28;20041;-81
2024/01/27 11:10:40;;;;;;;12.80;4.47;;;7.30;99.90;;;;;;5072946;28;20508;-81
2024/01/27 11:13:07;;;;;;;15.35;4.15;;;7.50;99.90;;;;;;5055632;28;20074;-81
2024/01/27 11:15:33;;;;;;;16.25;5.20;;;7.50;99.90;;;;;;5055625;28;20429;-80
2024/01/27 11:17:59;;;;;;;7.35;2.50;;;7.50;99.90;;;;;;5058607;28;20132;-81
2024/01/27 11:20:25;;;;;;;5.15;2.10;;;7.60;99.90;;;;;;5037421;28;20063;-81
2024/01/27 11:22:52;;;;;;;15.15;4.30;;;7.70;99.90;;;;;;5034500;28;20037;-81
2024/01/27 11:25:19;;;;;;;10.88;3.08;;;7.80;99.90;;;;;;5026216;28;20522;-80
2024/01/27 11:27:48;;;;;;;10.02;3.22;;;7.70;99.90;;;;;;5034114;28;20124;-80
2024/01/27 11:30:27;;;;;;;15.75;4.28;;;7.80;99.90;;;;;;5038679;28;20493;-81
2024/01/27 11:32:57;;;;;;;17.65;3.75;;;7.70;99.90;;;;;;5039551;28;20049;-81
2024/01/27 11:35:23;;;;;;;11.20;3.45;;;7.70;99.90;;;;;;5052496;28;20509;-81
2024/01/27 11:37:49;;;;;;;17.73;4.85;;;7.70;99.90;;;;;;5025719;28;20033;-80
2024/01/27 11:40:15;;;;;;;17.30;4.47;;;7.80;99.90;;;;;;5051465;28;20400;-80
2024/01/27 11:42:42;;;;;;;14.20;4.03;;;7.80;99.90;;;;;;5054749;28;20036;-81
2024/01/27 11:45:10;;;;;;;15.15;4.00;;;7.70;99.90;;;;;;5038134;28;20072;-81
2024/01/27 11:47:36;;;;;;;15.18;4.00;;;7.70;99.90;;;;;;5051081;28;20397;-80
2024/01/27 11:50:03;;;;;;;16.35;3.97;;;7.90;99.90;;;;;;5055756;28;20033;-80
2024/01/27 11:52:28;;;;;;;17.00;3.70;;;7.80;99.90;;;;;;5037967;28;20043;-81
2024/01/27 11:54:58;;;;;;;13.05;3.30;;;7.90;99.90;;;;;;5038093;28;20037;-80
2024/01/27 11:57:25;;;;;;;14.20;4.40;;;7.90;99.90;;;;;;5036259;28;20040;-80
2024/01/27 11:59:51;;;;;;;12.85;4.15;;;7.90;99.90;;;;;;5050579;28;20044;-80
2024/01/27 12:02:17;;;;;;;15.90;4.45;;;7.80;99.90;;;;;;5019510;28;20401;-80
2024/01/27 12:04:43;;;;;;;15.05;4.57;;;7.90;99.90;;;;;;5036779;28;20044;-80
2024/01/27 12:07:09;;;;;;;13.65;3.10;;;7.90;99.90;;;;;;5050583;28;20032;-80
2024/01/27 12:09:36;;;;;;;21.83;4.53;;;7.90;99.90;;;;;;5036224;28;20047;-80
2024/01/27 12:12:02;;;;;;;13.20;3.92;;;8.20;99.90;;;;;;5052924;28;20048;-80
2024/01/27 12:14:44;;;;;;;13.73;4.15;;;8.20;99.90;;;;;;5039076;28;20040;-80
2024/01/27 12:17:10;;;;;;;14.00;3.08;;;8.20;99.90;;;;;;5036089;28;20493;-80
2024/01/27 12:19:45;;;;;;;10.20;3.47;;;8.20;99.90;;;;;;5037746;28;20039;-80
2024/01/27 12:22:28;;;;;;;11.45;2.70;;;8.30;99.90;;;;;;5053776;28;20040;-80
2024/01/27 12:24:54;;;;;;;17.58;6.20;;;8.40;99.90;;;;;;5020421;28;20040;-80
2024/01/27 12:27:22;;;;;;;17.60;4.18;;;8.30;99.90;;;;;;5053872;28;20045;-81
2024/01/27 12:29:49;;;;;;;14.73;4.55;;;8.10;99.90;;;;;;5046430;28;20032;-80
2024/01/27 12:32:16;;;;;;;17.15;4.18;;;8.10;99.90;;;;;;5020939;28;20041;-80
2024/01/27 12:34:45;;;;;;;16.75;4.45;;;8.20;99.90;;;;;;5038359;28;20046;-81
2024/01/27 12:37:13;;;;;;;18.27;4.30;;;8.20;99.90;;;;;;5055098;28;20040;-80
2024/01/27 12:39:46;;;;;;;10.73;2.60;;;8.10;99.90;;;;;;5061390;28;20044;-80
2024/01/27 12:42:12;;;;;;;12.32;4.65;;;8.20;99.90;;;;;;5041790;28;20554;-80
2024/01/27 12:44:39;;;;;;;12.88;3.72;;;8.10;99.90;;;;;;5054376;28;20036;-80